sensor_id;sensor_type;location;lat;lon;timestamp;P1;durP1;ratioP1;P2;durP2;ratioP2
11988;SDS011;6054;50.966;7.094;2023-04-25T00:00:54;7.55;;;3.15;;
11988;SDS011;6054;50.966;7.094;2023-04-25T00:03:20;7.05;;;3.58;;
11988;SDS011;6054;50.966;7.094;2023-04-25T00:05:49;10.50;;;3.75;;
11988;SDS011;6054;50.966;7.094;2023-04-25T00:08:16;12.68;;;4.10;;
11988;SDS011;6054;50.966;7.094;2023-04-25T00:10:44;6.35;;;3.13;;
11988;SDS011;6054;50.966;7.094;2023-04-25T00:13:11;9.07;;;3.50;;
11988;SDS011;6054;50.966;7.094;2023-04-25T00:15:38;8.05;;;3.40;;
11988;SDS011;6054;50.966;7.094;2023-04-25T00:18:06;8.32;;;3.40;;
11988;SDS011;6054;50.966;7.094;2023-04-25T00:20:34;11.40;;;3.42;;
11988;SDS011;6054;50.966;7.094;2023-04-25T00:23:01;6.47;;;3.45;;
11988;SDS011;6054;50.966;7.094;2023-04-25T00:25:28;9.40;;;3.53;;
11988;SDS011;6054;50.966;7.094;2023-04-25T00:27:56;8.35;;;3.13;;
11988;SDS011;6054;50.966;7.094;2023-04-25T00:30:23;5.97;;;3.53;;
11988;SDS011;6054;50.966;7.094;2023-04-25T00:32:50;12.00;;;3.47;;
11988;SDS011;6054;50.966;7.094;2023-04-25T00:35:16;9.52;;;3.53;;
11988;SDS011;6054;50.966;7.094;2023-04-25T00:37:43;6.20;;;3.50;;
11988;SDS011;6054;50.966;7.094;2023-04-25T00:40:10;11.50;;;3.75;;
11988;SDS011;6054;50.966;7.094;2023-04-25T00:42:37;8.43;;;3.30;;
11988;SDS011;6054;50.966;7.094;2023-04-25T00:45:07;8.65;;;3.53;;
11988;SDS011;6054;50.966;7.094;2023-04-25T00:47:38;6.95;;;3.60;;
11988;SDS011;6054;50.966;7.094;2023-04-25T00:50:06;8.27;;;3.38;;
11988;SDS011;6054;50.966;7.094;2023-04-25T00:52:33;12.07;;;3.70;;
11988;SDS011;6054;50.966;7.094;2023-04-25T00:55:00;8.88;;;4.10;;
11988;SDS011;6054;50.966;7.094;2023-04-25T00:57:27;8.05;;;3.45;;
11988;SDS011;6054;50.966;7.094;2023-04-25T00:59:54;12.75;;;4.50;;
11988;SDS011;6054;50.966;7.094;2023-04-25T01:02:23;13.82;;;4.80;;
11988;SDS011;6054;50.966;7.094;2023-04-25T01:04:50;10.60;;;3.75;;
11988;SDS011;6054;50.966;7.094;2023-04-25T01:07:17;9.20;;;3.58;;
11988;SDS011;6054;50.966;7.094;2023-04-25T01:09:44;8.82;;;3.47;;
11988;SDS011;6054;50.966;7.094;2023-04-25T01:12:12;8.27;;;3.58;;
11988;SDS011;6054;50.966;7.094;2023-04-25T01:14:39;6.93;;;3.00;;
11988;SDS011;6054;50.966;7.094;2023-04-25T01:17:06;10.10;;;3.15;;
11988;SDS011;6054;50.966;7.094;2023-04-25T01:19:35;6.85;;;3.30;;
11988;SDS011;6054;50.966;7.094;2023-04-25T01:22:03;5.20;;;3.55;;
11988;SDS011;6054;50.966;7.094;2023-04-25T01:24:30;13.07;;;4.07;;
11988;SDS011;6054;50.966;7.094;2023-04-25T01:26:58;7.28;;;3.65;;
11988;SDS011;6054;50.966;7.094;2023-04-25T01:29:27;9.18;;;3.88;;
11988;SDS011;6054;50.966;7.094;2023-04-25T01:31:54;7.80;;;3.42;;
11988;SDS011;6054;50.966;7.094;2023-04-25T01:34:23;9.48;;;4.03;;
11988;SDS011;6054;50.966;7.094;2023-04-25T01:36:50;9.05;;;4.10;;
11988;SDS011;6054;50.966;7.094;2023-04-25T01:39:18;9.02;;;4.03;;
11988;SDS011;6054;50.966;7.094;2023-04-25T01:41:46;12.27;;;3.97;;
11988;SDS011;6054;50.966;7.094;2023-04-25T01:44:13;9.48;;;4.32;;
11988;SDS011;6054;50.966;7.094;2023-04-25T01:46:41;12.35;;;4.47;;
11988;SDS011;6054;50.966;7.094;2023-04-25T01:49:08;12.85;;;4.70;;
11988;SDS011;6054;50.966;7.094;2023-04-25T01:51:34;12.60;;;3.83;;
11988;SDS011;6054;50.966;7.094;2023-04-25T01:54:01;13.70;;;4.15;;
11988;SDS011;6054;50.966;7.094;2023-04-25T01:56:31;6.93;;;4.38;;
11988;SDS011;6054;50.966;7.094;2023-04-25T01:58:58;18.10;;;4.50;;
11988;SDS011;6054;50.966;7.094;2023-04-25T02:01:25;11.48;;;4.03;;
11988;SDS011;6054;50.966;7.094;2023-04-25T02:03:52;15.35;;;3.88;;
11988;SDS011;6054;50.966;7.094;2023-04-25T02:06:19;6.55;;;3.55;;
11988;SDS011;6054;50.966;7.094;2023-04-25T02:08:45;11.68;;;4.40;;
11988;SDS011;6054;50.966;7.094;2023-04-25T02:11:12;10.75;;;3.90;;
11988;SDS011;6054;50.966;7.094;2023-04-25T02:13:40;8.85;;;3.75;;
11988;SDS011;6054;50.966;7.094;2023-04-25T02:16:07;8.80;;;4.15;;
11988;SDS011;6054;50.966;7.094;2023-04-25T02:18:34;12.77;;;4.15;;
11988;SDS011;6054;50.966;7.094;2023-04-25T02:21:02;11.85;;;3.75;;
11988;SDS011;6054;50.966;7.094;2023-04-25T02:23:29;11.43;;;4.07;;
11988;SDS011;6054;50.966;7.094;2023-04-25T02:25:56;14.25;;;4.35;;
11988;SDS011;6054;50.966;7.094;2023-04-25T02:28:23;7.47;;;3.17;;
11988;SDS011;6054;50.966;7.094;2023-04-25T02:30:51;11.50;;;3.95;;
11988;SDS011;6054;50.966;7.094;2023-04-25T02:33:18;9.05;;;3.80;;
11988;SDS011;6054;50.966;7.094;2023-04-25T02:35:46;11.47;;;3.60;;
11988;SDS011;6054;50.966;7.094;2023-04-25T02:38:12;12.10;;;3.70;;
11988;SDS011;6054;50.966;7.094;2023-04-25T02:40:39;15.23;;;4.60;;
11988;SDS011;6054;50.966;7.094;2023-04-25T02:43:06;7.38;;;3.80;;
11988;SDS011;6054;50.966;7.094;2023-04-25T02:45:33;10.70;;;3.75;;
11988;SDS011;6054;50.966;7.094;2023-04-25T02:48:01;12.85;;;3.50;;
11988;SDS011;6054;50.966;7.094;2023-04-25T02:50:28;14.07;;;3.67;;
11988;SDS011;6054;50.966;7.094;2023-04-25T02:52:55;8.93;;;3.75;;
11988;SDS011;6054;50.966;7.094;2023-04-25T02:55:22;9.10;;;3.90;;
11988;SDS011;6054;50.966;7.094;2023-04-25T02:57:48;8.18;;;3.42;;
11988;SDS011;6054;50.966;7.094;2023-04-25T03:00:15;16.45;;;3.65;;
11988;SDS011;6054;50.966;7.094;2023-04-25T03:02:42;10.48;;;3.80;;
11988;SDS011;6054;50.966;7.094;2023-04-25T03:05:10;9.40;;;3.17;;
11988;SDS011;6054;50.966;7.094;2023-04-25T03:07:37;18.83;;;3.55;;
11988;SDS011;6054;50.966;7.094;2023-04-25T03:10:05;8.93;;;3.42;;
11988;SDS011;6054;50.966;7.094;2023-04-25T03:12:32;12.85;;;3.63;;
11988;SDS011;6054;50.966;7.094;2023-04-25T03:14:59;8.63;;;3.45;;
11988;SDS011;6054;50.966;7.094;2023-04-25T03:17:26;5.95;;;3.17;;
11988;SDS011;6054;50.966;7.094;2023-04-25T03:19:53;13.02;;;3.55;;
11988;SDS011;6054;50.966;7.094;2023-04-25T03:22:21;9.27;;;3.70;;
11988;SDS011;6054;50.966;7.094;2023-04-25T03:24:49;6.72;;;3.70;;
11988;SDS011;6054;50.966;7.094;2023-04-25T03:27:16;10.27;;;3.22;;
11988;SDS011;6054;50.966;7.094;2023-04-25T03:29:42;8.23;;;3.55;;
11988;SDS011;6054;50.966;7.094;2023-04-25T03:32:09;10.18;;;3.78;;
11988;SDS011;6054;50.966;7.094;2023-04-25T03:34:36;9.65;;;3.72;;
11988;SDS011;6054;50.966;7.094;2023-04-25T03:37:02;7.85;;;4.07;;
11988;SDS011;6054;50.966;7.094;2023-04-25T03:39:31;10.88;;;3.58;;
11988;SDS011;6054;50.966;7.094;2023-04-25T03:41:57;8.82;;;3.35;;
11988;SDS011;6054;50.966;7.094;2023-04-25T03:44:24;7.88;;;3.47;;
11988;SDS011;6054;50.966;7.094;2023-04-25T04:02:17;10.13;;;3.42;;
11988;SDS011;6054;50.966;7.094;2023-04-25T04:04:44;10.15;;;2.97;;
11988;SDS011;6054;50.966;7.094;2023-04-25T04:07:11;4.85;;;2.60;;
11988;SDS011;6054;50.966;7.094;2023-04-25T04:09:38;5.40;;;2.38;;
11988;SDS011;6054;50.966;7.094;2023-04-25T04:12:05;7.05;;;2.50;;
11988;SDS011;6054;50.966;7.094;2023-04-25T04:14:32;8.18;;;2.63;;
11988;SDS011;6054;50.966;7.094;2023-04-25T04:16:59;6.55;;;2.65;;
11988;SDS011;6054;50.966;7.094;2023-04-25T04:19:27;9.82;;;3.10;;
11988;SDS011;6054;50.966;7.094;2023-04-25T04:21:54;7.93;;;3.95;;
11988;SDS011;6054;50.966;7.094;2023-04-25T04:24:20;9.33;;;3.63;;
11988;SDS011;6054;50.966;7.094;2023-04-25T04:26:47;9.70;;;3.95;;
11988;SDS011;6054;50.966;7.094;2023-04-25T04:29:14;9.30;;;3.38;;
11988;SDS011;6054;50.966;7.094;2023-04-25T04:31:46;6.65;;;3.55;;
11988;SDS011;6054;50.966;7.094;2023-04-25T04:34:13;10.57;;;4.32;;
11988;SDS011;6054;50.966;7.094;2023-04-25T04:36:42;11.30;;;4.15;;
11988;SDS011;6054;50.966;7.094;2023-04-25T04:39:11;9.88;;;4.03;;
11988;SDS011;6054;50.966;7.094;2023-04-25T04:41:38;10.68;;;4.10;;
11988;SDS011;6054;50.966;7.094;2023-04-25T04:44:05;10.07;;;4.18;;
11988;SDS011;6054;50.966;7.094;2023-04-25T04:46:33;12.95;;;4.80;;
11988;SDS011;6054;50.966;7.094;2023-04-25T04:49:03;10.82;;;4.82;;
11988;SDS011;6054;50.966;7.094;2023-04-25T04:51:30;10.45;;;5.05;;
11988;SDS011;6054;50.966;7.094;2023-04-25T04:53:59;10.80;;;4.45;;
11988;SDS011;6054;50.966;7.094;2023-04-25T04:56:27;11.18;;;5.10;;
11988;SDS011;6054;50.966;7.094;2023-04-25T04:58:54;10.85;;;4.85;;
11988;SDS011;6054;50.966;7.094;2023-04-25T05:01:21;11.82;;;4.90;;
11988;SDS011;6054;50.966;7.094;2023-04-25T05:03:48;9.13;;;4.85;;
11988;SDS011;6054;50.966;7.094;2023-04-25T05:06:15;12.65;;;5.25;;
11988;SDS011;6054;50.966;7.094;2023-04-25T05:08:42;14.82;;;5.20;;
11988;SDS011;6054;50.966;7.094;2023-04-25T05:11:10;14.50;;;5.10;;
11988;SDS011;6054;50.966;7.094;2023-04-25T05:13:37;10.90;;;4.82;;
11988;SDS011;6054;50.966;7.094;2023-04-25T05:16:04;15.63;;;5.40;;
11988;SDS011;6054;50.966;7.094;2023-04-25T05:18:31;11.65;;;4.80;;
11988;SDS011;6054;50.966;7.094;2023-04-25T05:20:58;15.77;;;5.70;;
11988;SDS011;6054;50.966;7.094;2023-04-25T05:23:24;11.52;;;5.32;;
11988;SDS011;6054;50.966;7.094;2023-04-25T05:25:52;12.73;;;4.35;;
11988;SDS011;6054;50.966;7.094;2023-04-25T05:28:20;11.52;;;4.55;;
11988;SDS011;6054;50.966;7.094;2023-04-25T05:30:47;13.65;;;5.50;;
11988;SDS011;6054;50.966;7.094;2023-04-25T05:33:15;14.15;;;5.32;;
11988;SDS011;6054;50.966;7.094;2023-04-25T05:35:41;14.45;;;5.43;;
11988;SDS011;6054;50.966;7.094;2023-04-25T05:38:08;17.15;;;4.95;;
11988;SDS011;6054;50.966;7.094;2023-04-25T05:40:35;17.73;;;6.38;;
11988;SDS011;6054;50.966;7.094;2023-04-25T05:43:02;13.45;;;5.30;;
11988;SDS011;6054;50.966;7.094;2023-04-25T05:45:30;15.75;;;5.47;;
11988;SDS011;6054;50.966;7.094;2023-04-25T05:47:57;16.33;;;4.82;;
11988;SDS011;6054;50.966;7.094;2023-04-25T05:50:24;15.68;;;4.65;;
11988;SDS011;6054;50.966;7.094;2023-04-25T05:52:51;21.05;;;4.57;;
11988;SDS011;6054;50.966;7.094;2023-04-25T05:55:18;15.05;;;5.20;;
11988;SDS011;6054;50.966;7.094;2023-04-25T05:57:44;13.93;;;4.50;;
11988;SDS011;6054;50.966;7.094;2023-04-25T06:00:12;18.80;;;4.00;;
11988;SDS011;6054;50.966;7.094;2023-04-25T06:02:42;13.95;;;4.18;;
11988;SDS011;6054;50.966;7.094;2023-04-25T06:05:08;15.50;;;4.65;;
11988;SDS011;6054;50.966;7.094;2023-04-25T06:07:35;18.38;;;5.03;;
11988;SDS011;6054;50.966;7.094;2023-04-25T06:10:03;12.40;;;4.40;;
11988;SDS011;6054;50.966;7.094;2023-04-25T06:12:31;18.60;;;3.95;;
11988;SDS011;6054;50.966;7.094;2023-04-25T06:14:58;19.17;;;4.55;;
11988;SDS011;6054;50.966;7.094;2023-04-25T06:17:25;17.45;;;4.80;;
11988;SDS011;6054;50.966;7.094;2023-04-25T06:19:53;17.33;;;4.50;;
11988;SDS011;6054;50.966;7.094;2023-04-25T06:22:19;15.27;;;4.22;;
11988;SDS011;6054;50.966;7.094;2023-04-25T06:24:46;12.80;;;5.18;;
11988;SDS011;6054;50.966;7.094;2023-04-25T06:27:13;15.73;;;4.32;;
11988;SDS011;6054;50.966;7.094;2023-04-25T06:29:40;15.52;;;4.80;;
11988;SDS011;6054;50.966;7.094;2023-04-25T06:32:06;16.20;;;4.88;;
11988;SDS011;6054;50.966;7.094;2023-04-25T06:34:33;13.93;;;4.50;;
11988;SDS011;6054;50.966;7.094;2023-04-25T06:37:01;17.17;;;4.47;;
11988;SDS011;6054;50.966;7.094;2023-04-25T06:39:29;13.07;;;4.30;;
11988;SDS011;6054;50.966;7.094;2023-04-25T06:41:56;13.65;;;4.53;;
11988;SDS011;6054;50.966;7.094;2023-04-25T06:44:23;13.55;;;4.22;;
11988;SDS011;6054;50.966;7.094;2023-04-25T06:46:51;16.88;;;4.00;;
11988;SDS011;6054;50.966;7.094;2023-04-25T06:49:18;12.70;;;3.90;;
11988;SDS011;6054;50.966;7.094;2023-04-25T06:51:44;9.82;;;3.97;;
11988;SDS011;6054;50.966;7.094;2023-04-25T06:54:12;15.38;;;3.80;;
11988;SDS011;6054;50.966;7.094;2023-04-25T06:56:39;14.45;;;3.38;;
11988;SDS011;6054;50.966;7.094;2023-04-25T06:59:07;18.05;;;4.43;;
11988;SDS011;6054;50.966;7.094;2023-04-25T07:01:34;12.15;;;4.25;;
11988;SDS011;6054;50.966;7.094;2023-04-25T07:04:01;10.85;;;3.03;;
11988;SDS011;6054;50.966;7.094;2023-04-25T07:06:28;17.90;;;3.63;;
11988;SDS011;6054;50.966;7.094;2023-04-25T07:08:54;11.65;;;3.08;;
11988;SDS011;6054;50.966;7.094;2023-04-25T07:11:22;16.08;;;3.80;;
11988;SDS011;6054;50.966;7.094;2023-04-25T07:13:50;12.50;;;3.05;;
11988;SDS011;6054;50.966;7.094;2023-04-25T07:16:16;17.27;;;3.08;;
11988;SDS011;6054;50.966;7.094;2023-04-25T07:18:43;13.00;;;3.15;;
11988;SDS011;6054;50.966;7.094;2023-04-25T07:21:10;11.13;;;3.72;;
11988;SDS011;6054;50.966;7.094;2023-04-25T07:23:37;14.48;;;2.88;;
11988;SDS011;6054;50.966;7.094;2023-04-25T07:26:05;10.32;;;2.85;;
11988;SDS011;6054;50.966;7.094;2023-04-25T07:28:34;12.48;;;3.45;;
11988;SDS011;6054;50.966;7.094;2023-04-25T07:31:00;11.80;;;4.20;;
11988;SDS011;6054;50.966;7.094;2023-04-25T07:33:27;14.05;;;3.30;;
11988;SDS011;6054;50.966;7.094;2023-04-25T07:35:54;11.55;;;3.22;;
11988;SDS011;6054;50.966;7.094;2023-04-25T07:38:21;11.63;;;3.40;;
11988;SDS011;6054;50.966;7.094;2023-04-25T07:40:48;13.77;;;3.90;;
11988;SDS011;6054;50.966;7.094;2023-04-25T07:43:15;14.90;;;4.32;;
11988;SDS011;6054;50.966;7.094;2023-04-25T07:45:44;13.18;;;3.72;;
11988;SDS011;6054;50.966;7.094;2023-04-25T07:48:11;12.30;;;3.13;;
11988;SDS011;6054;50.966;7.094;2023-04-25T07:50:42;9.02;;;4.05;;
11988;SDS011;6054;50.966;7.094;2023-04-25T07:53:09;13.15;;;4.18;;
11988;SDS011;6054;50.966;7.094;2023-04-25T07:55:36;12.25;;;4.70;;
11988;SDS011;6054;50.966;7.094;2023-04-25T07:58:05;15.60;;;3.92;;
11988;SDS011;6054;50.966;7.094;2023-04-25T08:00:31;12.38;;;3.20;;
11988;SDS011;6054;50.966;7.094;2023-04-25T08:03:00;10.65;;;3.72;;
11988;SDS011;6054;50.966;7.094;2023-04-25T08:05:27;11.23;;;3.92;;
11988;SDS011;6054;50.966;7.094;2023-04-25T08:07:54;11.63;;;4.03;;
11988;SDS011;6054;50.966;7.094;2023-04-25T08:10:21;12.77;;;4.35;;
11988;SDS011;6054;50.966;7.094;2023-04-25T08:12:48;12.98;;;3.67;;
11988;SDS011;6054;50.966;7.094;2023-04-25T08:15:15;13.55;;;3.97;;
11988;SDS011;6054;50.966;7.094;2023-04-25T08:17:42;13.45;;;3.35;;
11988;SDS011;6054;50.966;7.094;2023-04-25T08:20:12;10.68;;;3.20;;
11988;SDS011;6054;50.966;7.094;2023-04-25T08:22:38;7.75;;;2.78;;
11988;SDS011;6054;50.966;7.094;2023-04-25T08:25:05;9.65;;;2.90;;
11988;SDS011;6054;50.966;7.094;2023-04-25T08:27:32;8.13;;;3.28;;
11988;SDS011;6054;50.966;7.094;2023-04-25T08:29:59;10.18;;;3.20;;
11988;SDS011;6054;50.966;7.094;2023-04-25T08:32:28;11.45;;;2.65;;
11988;SDS011;6054;50.966;7.094;2023-04-25T08:34:54;10.18;;;2.78;;
11988;SDS011;6054;50.966;7.094;2023-04-25T08:37:23;6.60;;;2.78;;
11988;SDS011;6054;50.966;7.094;2023-04-25T08:39:50;6.75;;;2.38;;
11988;SDS011;6054;50.966;7.094;2023-04-25T08:42:18;11.48;;;3.10;;
11988;SDS011;6054;50.966;7.094;2023-04-25T08:44:47;6.65;;;2.85;;
11988;SDS011;6054;50.966;7.094;2023-04-25T08:47:15;9.00;;;3.05;;
11988;SDS011;6054;50.966;7.094;2023-04-25T08:49:45;8.43;;;2.90;;
11988;SDS011;6054;50.966;7.094;2023-04-25T08:52:12;8.55;;;2.75;;
11988;SDS011;6054;50.966;7.094;2023-04-25T08:54:42;12.23;;;3.28;;
11988;SDS011;6054;50.966;7.094;2023-04-25T08:57:13;9.88;;;3.42;;
11988;SDS011;6054;50.966;7.094;2023-04-25T08:59:41;10.57;;;2.78;;
11988;SDS011;6054;50.966;7.094;2023-04-25T09:02:10;11.00;;;2.72;;
11988;SDS011;6054;50.966;7.094;2023-04-25T09:04:39;10.13;;;2.72;;
11988;SDS011;6054;50.966;7.094;2023-04-25T09:07:06;7.13;;;2.40;;
11988;SDS011;6054;50.966;7.094;2023-04-25T09:09:33;9.35;;;2.80;;
11988;SDS011;6054;50.966;7.094;2023-04-25T09:12:02;8.40;;;2.70;;
11988;SDS011;6054;50.966;7.094;2023-04-25T09:14:29;9.85;;;2.70;;
11988;SDS011;6054;50.966;7.094;2023-04-25T09:16:59;7.15;;;2.55;;
11988;SDS011;6054;50.966;7.094;2023-04-25T09:19:28;13.05;;;2.88;;
11988;SDS011;6054;50.966;7.094;2023-04-25T09:21:56;10.02;;;3.45;;
11988;SDS011;6054;50.966;7.094;2023-04-25T09:24:30;10.35;;;2.60;;
11988;SDS011;6054;50.966;7.094;2023-04-25T09:27:06;6.63;;;2.33;;
11988;SDS011;6054;50.966;7.094;2023-04-25T09:29:35;6.78;;;2.20;;
11988;SDS011;6054;50.966;7.094;2023-04-25T09:32:14;13.38;;;2.65;;
11988;SDS011;6054;50.966;7.094;2023-04-25T09:34:43;7.90;;;2.50;;
11988;SDS011;6054;50.966;7.094;2023-04-25T09:37:13;8.88;;;2.45;;
11988;SDS011;6054;50.966;7.094;2023-04-25T09:39:44;6.88;;;2.00;;
11988;SDS011;6054;50.966;7.094;2023-04-25T09:42:13;9.82;;;2.40;;
11988;SDS011;6054;50.966;7.094;2023-04-25T09:44:43;9.93;;;2.53;;
11988;SDS011;6054;50.966;7.094;2023-04-25T09:47:11;7.32;;;2.20;;
11988;SDS011;6054;50.966;7.094;2023-04-25T09:49:40;8.35;;;2.35;;
11988;SDS011;6054;50.966;7.094;2023-04-25T09:52:08;5.50;;;2.13;;
11988;SDS011;6054;50.966;7.094;2023-04-25T09:54:39;8.25;;;2.22;;
11988;SDS011;6054;50.966;7.094;2023-04-25T09:57:08;8.90;;;2.35;;
11988;SDS011;6054;50.966;7.094;2023-04-25T09:59:39;11.82;;;2.92;;
11988;SDS011;6054;50.966;7.094;2023-04-25T10:02:09;10.80;;;2.95;;
11988;SDS011;6054;50.966;7.094;2023-04-25T10:04:37;6.10;;;2.40;;
11988;SDS011;6054;50.966;7.094;2023-04-25T10:07:05;9.25;;;2.45;;
11988;SDS011;6054;50.966;7.094;2023-04-25T10:09:32;8.93;;;2.67;;
11988;SDS011;6054;50.966;7.094;2023-04-25T10:12:02;7.30;;;1.98;;
11988;SDS011;6054;50.966;7.094;2023-04-25T10:14:29;10.45;;;2.95;;
11988;SDS011;6054;50.966;7.094;2023-04-25T10:16:58;5.95;;;1.73;;
11988;SDS011;6054;50.966;7.094;2023-04-25T10:19:26;6.95;;;2.10;;
11988;SDS011;6054;50.966;7.094;2023-04-25T10:21:55;5.68;;;1.83;;
11988;SDS011;6054;50.966;7.094;2023-04-25T10:24:29;7.45;;;1.95;;
11988;SDS011;6054;50.966;7.094;2023-04-25T10:26:56;5.03;;;1.58;;
11988;SDS011;6054;50.966;7.094;2023-04-25T10:29:24;5.78;;;2.00;;
11988;SDS011;6054;50.966;7.094;2023-04-25T10:31:52;4.82;;;2.08;;
11988;SDS011;6054;50.966;7.094;2023-04-25T10:34:23;8.63;;;1.77;;
11988;SDS011;6054;50.966;7.094;2023-04-25T10:36:52;6.10;;;1.52;;
11988;SDS011;6054;50.966;7.094;2023-04-25T10:39:22;5.07;;;1.58;;
11988;SDS011;6054;50.966;7.094;2023-04-25T10:41:53;5.40;;;1.50;;
11988;SDS011;6054;50.966;7.094;2023-04-25T10:44:22;5.50;;;2.35;;
11988;SDS011;6054;50.966;7.094;2023-04-25T10:46:49;5.30;;;1.48;;
11988;SDS011;6054;50.966;7.094;2023-04-25T10:49:29;8.02;;;1.70;;
11988;SDS011;6054;50.966;7.094;2023-04-25T10:52:16;3.75;;;1.60;;
11988;SDS011;6054;50.966;7.094;2023-04-25T10:54:47;5.13;;;2.05;;
11988;SDS011;6054;50.966;7.094;2023-04-25T10:57:26;6.93;;;1.80;;
11988;SDS011;6054;50.966;7.094;2023-04-25T10:59:58;4.78;;;1.38;;
11988;SDS011;6054;50.966;7.094;2023-04-25T11:02:30;7.65;;;1.90;;
11988;SDS011;6054;50.966;7.094;2023-04-25T11:04:58;3.92;;;1.38;;
11988;SDS011;6054;50.966;7.094;2023-04-25T11:07:26;6.53;;;1.45;;
11988;SDS011;6054;50.966;7.094;2023-04-25T11:10:00;9.43;;;2.08;;
11988;SDS011;6054;50.966;7.094;2023-04-25T11:12:29;3.63;;;1.33;;
11988;SDS011;6054;50.966;7.094;2023-04-25T11:15:01;8.20;;;1.70;;
11988;SDS011;6054;50.966;7.094;2023-04-25T11:17:30;7.78;;;1.60;;
11988;SDS011;6054;50.966;7.094;2023-04-25T11:19:58;6.30;;;1.52;;
11988;SDS011;6054;50.966;7.094;2023-04-25T11:22:26;5.38;;;1.50;;
11988;SDS011;6054;50.966;7.094;2023-04-25T11:24:53;4.10;;;1.63;;
11988;SDS011;6054;50.966;7.094;2023-04-25T11:27:20;6.43;;;1.65;;
11988;SDS011;6054;50.966;7.094;2023-04-25T11:29:49;7.15;;;1.70;;
11988;SDS011;6054;50.966;7.094;2023-04-25T11:32:18;5.75;;;1.63;;
11988;SDS011;6054;50.966;7.094;2023-04-25T11:34:46;5.78;;;1.80;;
11988;SDS011;6054;50.966;7.094;2023-04-25T11:37:14;3.90;;;1.55;;
11988;SDS011;6054;50.966;7.094;2023-04-25T11:39:44;9.15;;;1.58;;
11988;SDS011;6054;50.966;7.094;2023-04-25T11:42:12;7.57;;;1.77;;
11988;SDS011;6054;50.966;7.094;2023-04-25T11:44:39;7.90;;;1.50;;
11988;SDS011;6054;50.966;7.094;2023-04-25T11:47:06;6.78;;;2.08;;
11988;SDS011;6054;50.966;7.094;2023-04-25T11:49:32;4.97;;;1.90;;
11988;SDS011;6054;50.966;7.094;2023-04-25T11:52:00;6.70;;;1.80;;
11988;SDS011;6054;50.966;7.094;2023-04-25T11:54:29;3.78;;;1.30;;
11988;SDS011;6054;50.966;7.094;2023-04-25T11:56:55;5.15;;;1.90;;
11988;SDS011;6054;50.966;7.094;2023-04-25T11:59:23;3.92;;;1.83;;
11988;SDS011;6054;50.966;7.094;2023-04-25T12:01:51;4.20;;;1.30;;
11988;SDS011;6054;50.966;7.094;2023-04-25T12:04:18;4.95;;;1.70;;
11988;SDS011;6054;50.966;7.094;2023-04-25T12:06:46;3.08;;;1.50;;
11988;SDS011;6054;50.966;7.094;2023-04-25T12:09:14;5.13;;;1.17;;
11988;SDS011;6054;50.966;7.094;2023-04-25T12:11:44;5.05;;;1.38;;
11988;SDS011;6054;50.966;7.094;2023-04-25T12:14:12;4.78;;;1.30;;
11988;SDS011;6054;50.966;7.094;2023-04-25T12:16:48;1.90;;;1.40;;
11988;SDS011;6054;50.966;7.094;2023-04-25T12:19:16;3.25;;;1.33;;
11988;SDS011;6054;50.966;7.094;2023-04-25T12:21:43;4.10;;;1.30;;
11988;SDS011;6054;50.966;7.094;2023-04-25T12:24:11;2.60;;;1.42;;
11988;SDS011;6054;50.966;7.094;2023-04-25T12:26:47;4.07;;;1.40;;
11988;SDS011;6054;50.966;7.094;2023-04-25T12:29:16;4.82;;;1.45;;
11988;SDS011;6054;50.966;7.094;2023-04-25T12:31:44;5.65;;;1.95;;
11988;SDS011;6054;50.966;7.094;2023-04-25T12:34:11;6.53;;;1.30;;
11988;SDS011;6054;50.966;7.094;2023-04-25T12:36:38;4.65;;;1.25;;
11988;SDS011;6054;50.966;7.094;2023-04-25T12:39:04;3.13;;;1.33;;
11988;SDS011;6054;50.966;7.094;2023-04-25T12:41:32;4.65;;;1.50;;
11988;SDS011;6054;50.966;7.094;2023-04-25T12:44:00;3.15;;;1.45;;
11988;SDS011;6054;50.966;7.094;2023-04-25T12:46:26;3.45;;;1.55;;
11988;SDS011;6054;50.966;7.094;2023-04-25T12:48:53;5.15;;;1.55;;
11988;SDS011;6054;50.966;7.094;2023-04-25T12:51:21;5.10;;;1.38;;
11988;SDS011;6054;50.966;7.094;2023-04-25T12:53:49;4.00;;;1.70;;
11988;SDS011;6054;50.966;7.094;2023-04-25T12:56:17;6.68;;;2.22;;
11988;SDS011;6054;50.966;7.094;2023-04-25T12:58:44;6.50;;;1.67;;
11988;SDS011;6054;50.966;7.094;2023-04-25T13:01:12;4.72;;;1.48;;
11988;SDS011;6054;50.966;7.094;2023-04-25T13:03:38;7.43;;;1.52;;
11988;SDS011;6054;50.966;7.094;2023-04-25T13:06:05;4.82;;;1.33;;
11988;SDS011;6054;50.966;7.094;2023-04-25T13:08:32;3.05;;;1.40;;
11988;SDS011;6054;50.966;7.094;2023-04-25T13:11:00;6.32;;;2.00;;
11988;SDS011;6054;50.966;7.094;2023-04-25T13:13:26;5.50;;;1.65;;
11988;SDS011;6054;50.966;7.094;2023-04-25T13:15:53;3.60;;;1.20;;
11988;SDS011;6054;50.966;7.094;2023-04-25T13:18:21;4.72;;;1.55;;
11988;SDS011;6054;50.966;7.094;2023-04-25T13:20:51;4.20;;;1.17;;
11988;SDS011;6054;50.966;7.094;2023-04-25T13:23:18;6.47;;;1.20;;
11988;SDS011;6054;50.966;7.094;2023-04-25T13:25:45;3.53;;;1.27;;
11988;SDS011;6054;50.966;7.094;2023-04-25T13:28:12;3.38;;;1.65;;
11988;SDS011;6054;50.966;7.094;2023-04-25T13:30:39;5.10;;;1.60;;
11988;SDS011;6054;50.966;7.094;2023-04-25T13:33:05;2.75;;;1.40;;
11988;SDS011;6054;50.966;7.094;2023-04-25T13:35:34;4.40;;;1.27;;
11988;SDS011;6054;50.966;7.094;2023-04-25T13:38:02;6.60;;;1.80;;
11988;SDS011;6054;50.966;7.094;2023-04-25T13:40:29;5.00;;;1.17;;
11988;SDS011;6054;50.966;7.094;2023-04-25T13:42:57;4.43;;;2.13;;
11988;SDS011;6054;50.966;7.094;2023-04-25T13:45:24;4.28;;;1.60;;
11988;SDS011;6054;50.966;7.094;2023-04-25T13:47:51;6.70;;;1.75;;
11988;SDS011;6054;50.966;7.094;2023-04-25T13:50:17;8.65;;;1.90;;
11988;SDS011;6054;50.966;7.094;2023-04-25T13:52:46;4.55;;;1.90;;
11988;SDS011;6054;50.966;7.094;2023-04-25T13:55:13;3.95;;;1.98;;
11988;SDS011;6054;50.966;7.094;2023-04-25T13:57:40;6.25;;;2.15;;
11988;SDS011;6054;50.966;7.094;2023-04-25T14:00:08;7.28;;;1.92;;
11988;SDS011;6054;50.966;7.094;2023-04-25T14:02:35;4.68;;;1.80;;
11988;SDS011;6054;50.966;7.094;2023-04-25T14:05:03;6.03;;;1.90;;
11988;SDS011;6054;50.966;7.094;2023-04-25T14:07:30;5.43;;;1.80;;
11988;SDS011;6054;50.966;7.094;2023-04-25T14:09:59;4.32;;;2.05;;
11988;SDS011;6054;50.966;7.094;2023-04-25T14:12:25;4.05;;;1.98;;
11988;SDS011;6054;50.966;7.094;2023-04-25T14:14:52;4.22;;;2.17;;
11988;SDS011;6054;50.966;7.094;2023-04-25T14:17:19;5.22;;;2.17;;
11988;SDS011;6054;50.966;7.094;2023-04-25T14:19:46;4.03;;;2.30;;
11988;SDS011;6054;50.966;7.094;2023-04-25T14:22:13;5.00;;;2.00;;
11988;SDS011;6054;50.966;7.094;2023-04-25T14:24:40;6.70;;;2.33;;
11988;SDS011;6054;50.966;7.094;2023-04-25T14:27:08;3.47;;;1.67;;
11988;SDS011;6054;50.966;7.094;2023-04-25T14:29:35;3.40;;;2.17;;
11988;SDS011;6054;50.966;7.094;2023-04-25T14:32:02;5.03;;;2.28;;
11988;SDS011;6054;50.966;7.094;2023-04-25T14:34:30;4.05;;;1.38;;
11988;SDS011;6054;50.966;7.094;2023-04-25T14:36:57;5.53;;;1.88;;
11988;SDS011;6054;50.966;7.094;2023-04-25T14:39:23;5.45;;;1.88;;
11988;SDS011;6054;50.966;7.094;2023-04-25T14:41:50;3.83;;;1.73;;
11988;SDS011;6054;50.966;7.094;2023-04-25T14:44:18;3.90;;;1.55;;
11988;SDS011;6054;50.966;7.094;2023-04-25T14:46:46;5.15;;;1.90;;
11988;SDS011;6054;50.966;7.094;2023-04-25T14:49:13;4.05;;;1.75;;
11988;SDS011;6054;50.966;7.094;2023-04-25T14:51:40;2.92;;;1.40;;
11988;SDS011;6054;50.966;7.094;2023-04-25T14:54:06;4.63;;;1.42;;
11988;SDS011;6054;50.966;7.094;2023-04-25T14:56:33;4.90;;;1.83;;
11988;SDS011;6054;50.966;7.094;2023-04-25T14:59:00;2.97;;;1.20;;
11988;SDS011;6054;50.966;7.094;2023-04-25T15:01:28;3.83;;;1.52;;
11988;SDS011;6054;50.966;7.094;2023-04-25T15:03:55;4.28;;;1.15;;
11988;SDS011;6054;50.966;7.094;2023-04-25T15:06:22;1.83;;;1.00;;
11988;SDS011;6054;50.966;7.094;2023-04-25T15:08:51;5.68;;;1.17;;
11988;SDS011;6054;50.966;7.094;2023-04-25T15:11:18;4.15;;;1.55;;
11988;SDS011;6054;50.966;7.094;2023-04-25T15:13:45;6.57;;;2.30;;